Time;durP1;ratioP1;P1;durP2;ratioP2;P2;SDS_P1;SDS_P2;PMS_P1;PMS_P2;Temp;Humidity;BMP_temperature;BMP_pressure;BME280_temperature;BME280_humidity;BME280_pressure;Samples;Min_cycle;Max_cycle;Signal;HPM_P1;HPM_P2
2024/02/10 00:01:48;;;;;;;0.90;0.90;;;-7.10;99.90;;;;;;5094590;28;20196;-67
2024/02/10 00:04:18;;;;;;;1.00;1.00;;;-7.20;99.90;;;;;;5094915;28;20257;-67
2024/02/10 00:06:48;;;;;;;1.00;1.00;;;-7.30;99.90;;;;;;5076426;28;20200;-67
2024/02/10 00:09:19;;;;;;;0.90;0.90;;;-7.40;99.90;;;;;;5076367;28;20626;-67
2024/02/10 00:11:45;;;;;;;0.97;0.97;;;-7.40;99.90;;;;;;5094360;28;20670;-67
2024/02/10 00:14:11;;;;;;;0.97;0.97;;;-7.40;99.90;;;;;;5094152;28;20208;-67
2024/02/10 00:16:36;;;;;;;0.90;0.90;;;-7.50;99.90;;;;;;5100784;28;20195;-67
2024/02/10 00:19:06;;;;;;;0.80;0.80;;;-7.60;99.90;;;;;;5114557;28;20294;-66
2024/02/10 00:21:41;;;;;;;1.20;1.20;;;-7.60;99.90;;;;;;5113698;28;20247;-67
2024/02/10 00:24:12;;;;;;;0.83;0.83;;;-7.60;99.90;;;;;;5114419;28;20647;-67
2024/02/10 00:26:38;;;;;;;0.90;0.90;;;-7.70;99.90;;;;;;5114160;28;20199;-67
2024/02/10 00:29:04;;;;;;;0.90;0.90;;;-7.80;99.90;;;;;;5114297;28;20196;-67
2024/02/10 00:31:31;;;;;;;1.00;1.00;;;-7.80;99.90;;;;;;5114011;28;20572;-67
2024/02/10 00:33:57;;;;;;;1.00;1.00;;;-7.80;99.90;;;;;;5114162;28;20219;-66
2024/02/10 00:36:26;;;;;;;0.90;0.90;;;-7.80;99.90;;;;;;5113960;28;20191;-66
2024/02/10 00:38:51;;;;;;;0.90;0.90;;;-7.80;99.90;;;;;;5095869;28;20681;-67
2024/02/10 00:41:19;;;;;;;1.00;1.00;;;-7.80;99.90;;;;;;5114101;28;20274;-68
2024/02/10 00:43:45;;;;;;;1.20;1.20;;;-7.90;99.90;;;;;;5094995;28;20207;-66
2024/02/10 00:46:19;;;;;;;1.20;1.20;;;-7.90;99.90;;;;;;5092948;28;20663;-67
2024/02/10 00:48:48;;;;;;;1.10;1.10;;;-8.00;99.90;;;;;;5093527;28;20270;-66
2024/02/10 00:51:14;;;;;;;0.90;0.90;;;-8.00;99.90;;;;;;5093500;28;20203;-68
2024/02/10 00:53:40;;;;;;;0.90;0.90;;;-8.10;99.90;;;;;;5093361;28;20608;-67
2024/02/10 00:56:10;;;;;;;2.33;2.13;;;-8.10;99.90;;;;;;5093325;28;20200;-73
2024/02/10 00:58:44;;;;;;;0.90;0.90;;;-8.10;99.90;;;;;;5093120;28;20657;-73
2024/02/10 01:01:12;;;;;;;1.00;1.00;;;-8.10;99.90;;;;;;5075033;28;20195;-73
2024/02/10 01:03:45;;;;;;;1.17;1.17;;;-8.10;99.90;;;;;;5093043;28;20676;-73
2024/02/10 01:06:12;;;;;;;1.00;1.00;;;-8.20;99.90;;;;;;5093203;28;20227;-73
2024/02/10 01:08:46;;;;;;;0.90;0.90;;;-8.20;99.90;;;;;;5092807;28;20703;-73
2024/02/10 01:11:23;;;;;;;1.30;1.20;;;-8.20;99.90;;;;;;5093408;28;20279;-73
2024/02/10 01:13:50;;;;;;;0.90;0.90;;;-8.20;99.90;;;;;;5107800;28;20195;-73
2024/02/10 01:16:17;;;;;;;1.00;1.00;;;-8.20;99.90;;;;;;5113430;28;20587;-73
2024/02/10 01:18:50;;;;;;;1.00;1.00;;;-8.30;99.90;;;;;;5113456;28;20275;-73
2024/02/10 01:21:17;;;;;;;0.90;0.90;;;-8.20;99.90;;;;;;5113043;28;20195;-73
2024/02/10 01:23:46;;;;;;;0.90;0.90;;;-8.20;99.90;;;;;;5113291;28;20214;-73
2024/02/10 01:26:12;;;;;;;1.30;1.20;;;-8.30;99.90;;;;;;5094920;28;20279;-73
2024/02/10 01:28:44;;;;;;;0.90;0.90;;;-8.30;99.90;;;;;;5112944;28;20203;-73
2024/02/10 01:31:11;;;;;;;1.00;1.00;;;-8.30;99.90;;;;;;5113195;28;20259;-73
2024/02/10 01:33:41;;;;;;;0.90;0.90;;;-8.30;99.90;;;;;;5094537;28;20718;-73
2024/02/10 01:36:09;;;;;;;1.00;1.00;;;-8.30;99.90;;;;;;5113073;28;20202;-73
2024/02/10 01:38:42;;;;;;;1.00;1.00;;;-8.40;99.90;;;;;;5112637;28;20191;-73
2024/02/10 01:41:13;;;;;;;0.93;0.93;;;-8.40;99.90;;;;;;5112766;28;20651;-73
2024/02/10 01:43:41;;;;;;;0.97;0.97;;;-8.30;99.90;;;;;;5112840;28;20191;-73
2024/02/10 01:46:09;;;;;;;0.80;0.80;;;-8.30;99.90;;;;;;5112935;28;20195;-73
2024/02/10 01:48:35;;;;;;;1.20;1.20;;;-8.30;99.90;;;;;;5112699;28;20317;-73
2024/02/10 01:51:01;;;;;;;1.00;1.00;;;-8.30;99.90;;;;;;5113001;28;20274;-73
2024/02/10 01:53:27;;;;;;;0.90;0.90;;;-8.30;99.90;;;;;;5112619;28;20284;-73
2024/02/10 01:55:53;;;;;;;0.90;0.90;;;-8.20;99.90;;;;;;5112737;28;20244;-73
2024/02/10 01:58:22;;;;;;;0.90;0.90;;;-8.30;99.90;;;;;;5098186;28;20678;-73
2024/02/10 02:00:48;;;;;;;0.93;0.93;;;-8.30;99.90;;;;;;5098780;28;20648;-73
2024/02/10 02:03:15;;;;;;;1.00;1.00;;;-8.30;99.90;;;;;;5117141;28;20191;-73
2024/02/10 02:05:41;;;;;;;0.90;0.90;;;-8.30;99.90;;;;;;5116689;28;20286;-67
2024/02/10 02:08:08;;;;;;;1.03;1.03;;;-8.40;99.90;;;;;;5116242;28;20195;-66
2024/02/10 02:10:34;;;;;;;0.90;0.90;;;-8.40;99.90;;;;;;5101145;28;20216;-68
2024/02/10 02:13:00;;;;;;;1.00;1.00;;;-8.40;99.90;;;;;;5096506;28;20535;-67
2024/02/10 02:15:30;;;;;;;0.93;0.93;;;-8.40;99.90;;;;;;5095880;28;20256;-67
2024/02/10 02:17:58;;;;;;;1.00;1.00;;;-8.40;99.90;;;;;;5096427;28;20829;-67
2024/02/10 02:20:25;;;;;;;0.93;0.93;;;-8.40;99.90;;;;;;5095940;28;20188;-67
2024/02/10 02:22:52;;;;;;;0.97;0.97;;;-8.40;99.90;;;;;;5096229;28;20204;-67
2024/02/10 02:25:18;;;;;;;0.90;0.90;;;-8.30;99.90;;;;;;5095912;28;20688;-69
2024/02/10 02:27:44;;;;;;;1.00;1.00;;;-8.40;99.90;;;;;;5077716;28;20672;-67
2024/02/10 02:30:10;;;;;;;1.00;1.00;;;-8.40;99.90;;;;;;5096011;28;20195;-67
2024/02/10 02:32:36;;;;;;;1.00;1.00;;;-8.40;99.90;;;;;;5095797;28;20252;-67
2024/02/10 02:35:09;;;;;;;1.00;1.00;;;-8.40;99.90;;;;;;5095749;28;20208;-66
2024/02/10 02:37:41;;;;;;;0.93;0.93;;;-8.40;99.90;;;;;;5095803;28;20587;-68
2024/02/10 02:40:11;;;;;;;1.37;1.30;;;-8.40;99.90;;;;;;5095883;28;20192;-67
2024/02/10 02:42:37;;;;;;;0.80;0.80;;;-8.40;99.90;;;;;;5095690;28;20200;-67
2024/02/10 02:45:06;;;;;;;1.00;1.00;;;-8.40;99.90;;;;;;5095971;28;20227;-66
2024/02/10 02:47:32;;;;;;;0.90;0.90;;;-8.50;99.90;;;;;;5095717;28;20196;-67
2024/02/10 02:50:01;;;;;;;0.90;0.90;;;-8.50;99.90;;;;;;5095739;28;20564;-67
2024/02/10 02:52:30;;;;;;;0.80;0.80;;;-8.50;99.90;;;;;;5095629;28;20200;-67
2024/02/10 02:54:59;;;;;;;1.10;1.10;;;-8.50;99.90;;;;;;5095599;28;20728;-67
2024/02/10 02:57:25;;;;;;;0.97;0.97;;;-8.50;99.90;;;;;;5095550;28;20642;-66
2024/02/10 02:59:52;;;;;;;0.83;0.83;;;-8.40;99.90;;;;;;5095522;28;20667;-66
2024/02/10 03:02:18;;;;;;;0.90;0.90;;;-8.40;99.90;;;;;;5095552;28;20218;-68
2024/02/10 03:04:44;;;;;;;0.90;0.90;;;-8.50;99.90;;;;;;5095667;28;20711;-67
2024/02/10 03:07:14;;;;;;;1.00;1.00;;;-8.50;99.90;;;;;;5115740;28;20287;-67
2024/02/10 03:09:41;;;;;;;0.90;0.90;;;-8.60;99.90;;;;;;5114832;28;20315;-67
2024/02/10 03:12:07;;;;;;;1.00;1.00;;;-8.50;99.90;;;;;;5115819;28;20706;-67
2024/02/10 03:14:33;;;;;;;0.90;0.90;;;-8.60;99.90;;;;;;5115457;28;20203;-73
2024/02/10 03:17:00;;;;;;;0.80;0.80;;;-8.60;99.90;;;;;;5115675;28;20595;-73
2024/02/10 03:19:25;;;;;;;0.90;0.90;;;-8.60;99.90;;;;;;5115195;28;20187;-73
2024/02/10 03:21:51;;;;;;;0.90;0.90;;;-8.60;99.90;;;;;;5115574;28;20202;-73
2024/02/10 03:24:17;;;;;;;0.90;0.90;;;-8.60;99.90;;;;;;5115589;28;20204;-73
2024/02/10 03:26:43;;;;;;;0.90;0.90;;;-8.50;99.90;;;;;;5115255;28;20242;-73
2024/02/10 03:29:09;;;;;;;1.10;1.10;;;-8.50;99.90;;;;;;5115408;28;20192;-73
2024/02/10 03:31:35;;;;;;;0.97;0.97;;;-8.50;99.90;;;;;;5114950;28;20195;-73
2024/02/10 03:34:01;;;;;;;1.00;1.00;;;-8.60;99.90;;;;;;5096922;28;20199;-73
2024/02/10 03:36:30;;;;;;;0.90;0.90;;;-8.60;99.90;;;;;;5115193;28;20195;-73
2024/02/10 03:39:03;;;;;;;0.90;0.90;;;-8.60;99.90;;;;;;5115135;28;20278;-73
2024/02/10 03:41:29;;;;;;;1.00;1.00;;;-8.70;99.90;;;;;;5096578;28;20206;-73
2024/02/10 03:43:58;;;;;;;1.00;1.00;;;-8.70;99.90;;;;;;5115156;28;20195;-73
2024/02/10 03:46:23;;;;;;;1.00;1.00;;;-8.70;99.90;;;;;;5114814;28;20262;-73
2024/02/10 03:48:52;;;;;;;0.90;0.90;;;-8.70;99.90;;;;;;5096584;28;20286;-73
2024/02/10 03:51:18;;;;;;;1.00;1.00;;;-8.60;99.90;;;;;;5115010;28;20194;-73
2024/02/10 03:53:43;;;;;;;0.97;0.97;;;-8.60;99.90;;;;;;5114859;28;20561;-73
2024/02/10 03:56:10;;;;;;;0.87;0.87;;;-8.70;99.90;;;;;;5114877;28;20207;-73
2024/02/10 03:58:43;;;;;;;1.10;1.10;;;-8.60;99.90;;;;;;5114737;28;20198;-73
2024/02/10 04:01:18;;;;;;;1.10;1.10;;;-8.60;99.90;;;;;;5104858;28;20217;-73
2024/02/10 04:03:47;;;;;;;1.00;1.00;;;-8.60;99.90;;;;;;5105187;28;20563;-73
2024/02/10 04:06:17;;;;;;;1.27;1.27;;;-8.70;99.90;;;;;;5114584;28;20651;-73
2024/02/10 04:08:48;;;;;;;1.00;1.00;;;-8.70;99.90;;;;;;5114426;28;20220;-73
2024/02/10 04:11:16;;;;;;;1.00;1.00;;;-8.70;99.90;;;;;;5114597;28;20195;-73
2024/02/10 04:13:42;;;;;;;1.00;1.00;;;-8.70;99.90;;;;;;5114494;28;20800;-74
2024/02/10 04:16:12;;;;;;;0.90;0.90;;;-8.70;99.90;;;;;;5096050;28;20230;-73
2024/02/10 04:18:39;;;;;;;1.00;1.00;;;-8.70;99.90;;;;;;5114213;28;20217;-73
2024/02/10 04:21:06;;;;;;;0.90;0.90;;;-8.70;99.90;;;;;;5113200;28;20643;-73
2024/02/10 04:23:35;;;;;;;1.10;1.10;;;-8.80;99.90;;;;;;5114635;28;20267;-73
2024/02/10 04:26:04;;;;;;;1.00;1.00;;;-8.80;99.90;;;;;;5114394;28;20210;-73
2024/02/10 04:28:30;;;;;;;1.00;1.00;;;-8.80;99.90;;;;;;5097187;28;20207;-73
2024/02/10 04:30:56;;;;;;;1.00;1.00;;;-8.80;99.90;;;;;;5093805;28;20578;-73
2024/02/10 04:33:22;;;;;;;1.10;1.10;;;-8.80;99.90;;;;;;5075390;28;20334;-73
2024/02/10 04:35:48;;;;;;;0.90;0.90;;;-8.90;99.90;;;;;;5093578;28;20660;-73
2024/02/10 04:38:14;;;;;;;0.90;0.90;;;-8.90;99.90;;;;;;5093620;28;20192;-73
2024/02/10 04:40:40;;;;;;;1.00;1.00;;;-9.00;99.90;;;;;;5093448;28;20200;-73
2024/02/10 04:43:06;;;;;;;1.10;1.10;;;-9.00;99.90;;;;;;5093401;28;20242;-72
2024/02/10 04:45:33;;;;;;;1.00;1.00;;;-8.90;99.90;;;;;;5093328;28;20616;-72
2024/02/10 04:48:01;;;;;;;0.83;0.83;;;-8.90;99.90;;;;;;5093855;28;20627;-72
2024/02/10 04:50:28;;;;;;;1.00;1.00;;;-8.90;99.90;;;;;;5093198;28;20202;-73
2024/02/10 04:52:58;;;;;;;1.00;1.00;;;-8.90;99.90;;;;;;5093393;28;20664;-73
2024/02/10 04:55:26;;;;;;;1.00;1.00;;;-8.90;99.90;;;;;;5093144;28;20578;-73
2024/02/10 04:57:53;;;;;;;1.00;1.00;;;-8.90;99.90;;;;;;5092979;28;20200;-73
2024/02/10 05:00:20;;;;;;;0.90;0.90;;;-8.90;99.90;;;;;;5093247;28;20335;-73
2024/02/10 05:02:47;;;;;;;1.00;1.00;;;-8.90;99.90;;;;;;5093152;28;20216;-72
2024/02/10 05:05:14;;;;;;;0.90;0.90;;;-8.90;99.90;;;;;;5087075;28;20283;-72
2024/02/10 05:07:45;;;;;;;1.10;1.10;;;-8.90;99.90;;;;;;5072673;28;20207;-72
2024/02/10 05:10:14;;;;;;;1.00;1.00;;;-8.90;99.90;;;;;;5072734;28;20316;-73
2024/02/10 05:12:49;;;;;;;1.10;1.10;;;-9.00;99.90;;;;;;5084586;28;20218;-74
2024/02/10 05:15:21;;;;;;;1.00;1.00;;;-9.00;99.90;;;;;;5074738;28;20270;-73
2024/02/10 05:17:49;;;;;;;0.90;0.90;;;-9.00;99.90;;;;;;5092769;28;20203;-73
2024/02/10 05:20:21;;;;;;;0.93;0.93;;;-9.00;99.90;;;;;;5074537;28;20333;-73
2024/02/10 05:22:48;;;;;;;0.90;0.90;;;-9.00;99.90;;;;;;5092806;28;20199;-73
2024/02/10 05:25:15;;;;;;;1.50;1.40;;;-9.00;99.90;;;;;;5072787;28;20661;-73
2024/02/10 05:27:47;;;;;;;0.90;0.90;;;-9.00;99.90;;;;;;5072470;28;20585;-74
2024/02/10 05:30:25;;;;;;;0.90;0.90;;;-9.00;99.90;;;;;;5072669;28;20224;-73
2024/02/10 05:32:52;;;;;;;0.90;0.90;;;-9.00;99.90;;;;;;5072254;28;20196;-73
2024/02/10 05:35:19;;;;;;;1.10;1.10;;;-9.10;99.90;;;;;;5054576;28;20589;-66
2024/02/10 05:37:46;;;;;;;0.90;0.90;;;-9.00;99.90;;;;;;5072469;28;20604;-66
2024/02/10 05:40:13;;;;;;;0.90;0.90;;;-8.90;99.90;;;;;;5072397;28;20560;-67
2024/02/10 05:42:40;;;;;;;0.90;0.90;;;-8.90;99.90;;;;;;5072271;28;20203;-66
2024/02/10 05:45:07;;;;;;;10.73;2.53;;;-9.00;99.90;;;;;;5072451;28;20196;-66
2024/02/10 05:47:36;;;;;;;1.23;1.20;;;-8.90;99.90;;;;;;5072166;28;20674;-67
2024/02/10 05:50:08;;;;;;;0.90;0.90;;;-8.90;99.90;;;;;;5054318;28;20683;-67
2024/02/10 05:52:35;;;;;;;2.07;1.90;;;-8.90;99.90;;;;;;5072437;28;20255;-66
2024/02/10 05:55:03;;;;;;;0.90;0.90;;;-8.90;99.90;;;;;;5082068;28;20210;-66
2024/02/10 05:57:29;;;;;;;0.90;0.90;;;-8.90;99.90;;;;;;5092215;28;20204;-68
2024/02/10 05:59:55;;;;;;;0.90;0.90;;;-8.90;99.90;;;;;;5092379;28;20199;-67
2024/02/10 06:02:21;;;;;;;0.90;0.90;;;-8.90;99.90;;;;;;5074113;28;20644;-67
2024/02/10 06:04:50;;;;;;;1.00;1.00;;;-8.80;99.90;;;;;;5092459;28;20672;-66
2024/02/10 06:07:19;;;;;;;1.07;1.03;;;-8.90;99.90;;;;;;5092342;28;20223;-67
2024/02/10 06:09:45;;;;;;;1.73;1.63;;;-8.90;99.90;;;;;;5092179;28;20227;-66
2024/02/10 06:12:11;;;;;;;0.90;0.90;;;-8.80;99.90;;;;;;5092329;28;20226;-67
2024/02/10 06:14:37;;;;;;;0.90;0.90;;;-8.80;99.90;;;;;;5073810;28;20239;-67
2024/02/10 06:17:04;;;;;;;0.97;0.97;;;-8.80;99.90;;;;;;5074396;28;20257;-67
2024/02/10 06:19:29;;;;;;;1.60;1.50;;;-8.80;99.90;;;;;;5087723;28;20246;-69
2024/02/10 06:21:55;;;;;;;1.00;1.00;;;-8.80;99.90;;;;;;5072118;28;20201;-67
2024/02/10 06:24:24;;;;;;;1.00;1.00;;;-8.80;99.90;;;;;;5071638;28;20200;-67
2024/02/10 06:26:50;;;;;;;1.00;1.00;;;-8.90;99.90;;;;;;5072012;28;20197;-67
2024/02/10 06:29:15;;;;;;;0.97;0.97;;;-8.90;99.90;;;;;;5053922;28;20215;-67
2024/02/10 06:31:42;;;;;;;0.93;0.93;;;-8.80;99.90;;;;;;5053934;28;20223;-67
2024/02/10 06:34:08;;;;;;;1.00;1.00;;;-8.80;99.90;;;;;;5071900;28;20216;-66
2024/02/10 06:36:34;;;;;;;0.90;0.90;;;-8.90;99.90;;;;;;5071746;28;20253;-67
2024/02/10 06:39:00;;;;;;;1.03;1.03;;;-8.90;99.90;;;;;;5071898;28;20216;-67
2024/02/10 06:41:30;;;;;;;0.90;0.90;;;-8.80;99.90;;;;;;5071620;28;20542;-67
2024/02/10 06:43:56;;;;;;;0.87;0.87;;;-8.90;99.90;;;;;;5073069;28;20189;-67
2024/02/10 06:46:22;;;;;;;0.80;0.80;;;-8.80;99.90;;;;;;5075578;28;20192;-73
2024/02/10 06:48:47;;;;;;;0.97;0.97;;;-8.80;99.90;;;;;;5075589;28;20242;-73
2024/02/10 06:51:13;;;;;;;1.00;1.00;;;-8.80;99.90;;;;;;5086407;28;20192;-73
2024/02/10 06:53:39;;;;;;;1.00;1.00;;;-8.90;99.90;;;;;;5095585;28;20208;-74
2024/02/10 06:56:05;;;;;;;0.90;0.90;;;-8.90;99.90;;;;;;5077447;28;20212;-74
2024/02/10 06:58:30;;;;;;;0.90;0.90;;;-8.90;99.90;;;;;;5095490;28;20674;-73
2024/02/10 07:00:58;;;;;;;1.00;1.00;;;-8.90;99.90;;;;;;5077416;28;20539;-74
2024/02/10 07:03:23;;;;;;;1.03;1.03;;;-8.90;99.90;;;;;;5095434;28;20212;-73
2024/02/10 07:05:49;;;;;;;0.93;0.93;;;-8.90;99.90;;;;;;5095466;28;20224;-73
2024/02/10 07:08:22;;;;;;;1.00;1.00;;;-8.90;99.90;;;;;;5077105;28;20331;-75
2024/02/10 07:10:49;;;;;;;1.00;1.00;;;-8.90;99.90;;;;;;5095438;28;20196;-74
2024/02/10 07:13:14;;;;;;;1.00;1.00;;;-8.80;99.90;;;;;;5095558;28;20664;-74
2024/02/10 07:15:41;;;;;;;1.10;1.10;;;-8.80;99.90;;;;;;5073391;28;20255;-75
2024/02/10 07:18:07;;;;;;;1.00;1.00;;;-8.80;99.90;;;;;;5075294;28;20204;-75
2024/02/10 07:20:34;;;;;;;1.00;1.00;;;-8.80;99.90;;;;;;5074894;28;20193;-74
2024/02/10 07:23:03;;;;;;;1.00;1.00;;;-8.80;99.90;;;;;;5074664;28;20303;-74
2024/02/10 07:25:31;;;;;;;0.90;0.90;;;-8.80;99.90;;;;;;5056889;28;20201;-73
2024/02/10 07:28:04;;;;;;;0.90;0.90;;;-8.80;99.90;;;;;;5056981;28;20204;-75
2024/02/10 07:30:34;;;;;;;0.90;0.90;;;-8.80;99.90;;;;;;5074607;28;20192;-74
2024/02/10 07:33:08;;;;;;;1.00;1.00;;;-8.70;99.90;;;;;;5074963;28;20225;-74
2024/02/10 07:35:34;;;;;;;0.90;0.90;;;-8.70;99.90;;;;;;5056518;28;20224;-75
2024/02/10 07:38:00;;;;;;;1.20;1.20;;;-8.70;99.90;;;;;;5056785;28;20202;-75
2024/02/10 07:40:26;;;;;;;1.30;1.27;;;-8.70;99.90;;;;;;5074479;28;20193;-75
2024/02/10 07:42:52;;;;;;;0.93;0.93;;;-8.70;99.90;;;;;;5056586;28;20571;-75
2024/02/10 07:45:18;;;;;;;0.90;0.90;;;-8.70;99.90;;;;;;5074838;28;20207;-75
2024/02/10 07:47:47;;;;;;;0.83;0.83;;;-8.60;99.90;;;;;;5078542;28;20298;-75
2024/02/10 07:50:13;;;;;;;1.00;1.00;;;-8.60;99.90;;;;;;5074465;28;20193;-75
2024/02/10 07:52:42;;;;;;;1.00;1.00;;;-8.50;99.90;;;;;;5074202;28;20209;-75
2024/02/10 07:55:12;;;;;;;1.00;1.00;;;-8.50;99.90;;;;;;5074280;28;20208;-76
2024/02/10 07:57:39;;;;;;;0.90;0.90;;;-8.40;99.90;;;;;;5074271;28;20216;-73
2024/02/10 08:00:05;;;;;;;0.90;0.90;;;-8.40;99.90;;;;;;5074180;28;20264;-76
2024/02/10 08:02:31;;;;;;;1.10;1.10;;;-8.30;99.90;;;;;;5073943;28;20189;-76
2024/02/10 08:04:57;;;;;;;1.00;1.00;;;-8.30;99.90;;;;;;5074067;28;20212;-75
2024/02/10 08:07:29;;;;;;;1.00;1.00;;;-8.20;99.90;;;;;;5073875;28;20652;-75
2024/02/10 08:09:59;;;;;;;1.00;1.00;;;-8.20;99.90;;;;;;5073792;28;20224;-75
2024/02/10 08:12:29;;;;;;;0.97;0.97;;;-8.10;99.90;;;;;;5081232;28;20262;-76
2024/02/10 08:14:57;;;;;;;1.00;1.00;;;-8.10;99.90;;;;;;5075923;28;20244;-76
2024/02/10 08:17:26;;;;;;;0.90;0.90;;;-8.10;99.90;;;;;;5093991;28;20185;-74
2024/02/10 08:19:56;;;;;;;0.97;0.97;;;-8.10;99.90;;;;;;5093736;28;20731;-75
2024/02/10 08:22:23;;;;;;;1.00;1.00;;;-8.00;99.90;;;;;;5094099;28;20648;-74
2024/02/10 08:24:51;;;;;;;0.80;0.80;;;-8.00;99.90;;;;;;5076587;28;20204;-74
2024/02/10 08:27:18;;;;;;;1.00;1.00;;;-8.10;99.90;;;;;;5073722;28;20617;-75
2024/02/10 08:29:46;;;;;;;1.00;1.00;;;-8.00;99.90;;;;;;5073545;28;20197;-75
2024/02/10 08:32:13;;;;;;;0.97;0.97;;;-7.90;99.90;;;;;;5073633;28;20199;-75
2024/02/10 08:34:43;;;;;;;0.97;0.97;;;-7.90;99.90;;;;;;5073301;28;20213;-75
2024/02/10 08:37:12;;;;;;;0.90;0.90;;;-7.80;99.90;;;;;;5073562;28;20200;-75
2024/02/10 08:39:43;;;;;;;1.00;1.00;;;-7.80;99.90;;;;;;5073240;28;20246;-75
2024/02/10 08:42:10;;;;;;;0.90;0.90;;;-7.80;99.90;;;;;;5074602;28;20191;-75
2024/02/10 08:44:39;;;;;;;0.90;0.90;;;-7.80;99.90;;;;;;5093552;28;20192;-75
2024/02/10 08:47:06;;;;;;;1.00;1.00;;;-7.80;99.90;;;;;;5093836;28;20200;-75
2024/02/10 08:49:35;;;;;;;1.00;1.00;;;-7.70;99.90;;;;;;5093387;28;20184;-75
2024/02/10 08:52:06;;;;;;;1.00;1.00;;;-7.60;99.90;;;;;;5093747;28;20202;-75
2024/02/10 08:54:32;;;;;;;1.00;1.00;;;-7.50;99.90;;;;;;5093382;28;20544;-75
2024/02/10 08:57:02;;;;;;;0.90;0.90;;;-7.50;99.90;;;;;;5075301;28;20196;-75
2024/02/10 08:59:31;;;;;;;1.07;1.07;;;-7.40;99.90;;;;;;5093304;28;20188;-74
2024/02/10 09:02:00;;;;;;;1.53;1.43;;;-7.40;99.90;;;;;;5093540;28;20196;-75
2024/02/10 09:04:28;;;;;;;3.30;3.00;;;-7.30;99.90;;;;;;5093245;28;20223;-75
2024/02/10 09:06:54;;;;;;;1.00;1.00;;;-7.30;99.90;;;;;;5092757;28;20192;-75
2024/02/10 09:09:20;;;;;;;1.00;1.00;;;-7.20;99.90;;;;;;5092728;28;20715;-75
2024/02/10 09:11:47;;;;;;;1.17;1.17;;;-7.10;99.90;;;;;;5093275;28;20188;-75
2024/02/10 09:14:13;;;;;;;0.90;0.90;;;-7.10;99.90;;;;;;5074815;28;20287;-74
2024/02/10 09:16:39;;;;;;;0.90;0.90;;;-7.00;99.90;;;;;;5092842;28;20306;-74
2024/02/10 09:19:04;;;;;;;1.10;1.10;;;-6.90;99.90;;;;;;5092993;28;20219;-74
2024/02/10 09:21:30;;;;;;;0.83;0.83;;;-6.90;99.90;;;;;;5074429;28;20208;-74
2024/02/10 09:23:58;;;;;;;0.90;0.90;;;-6.90;99.90;;;;;;5082843;28;20220;-75
2024/02/10 09:26:25;;;;;;;0.90;0.90;;;-6.80;99.90;;;;;;5072472;28;20189;-75
2024/02/10 09:28:51;;;;;;;0.90;0.90;;;-6.70;99.90;;;;;;5072545;28;20193;-75
2024/02/10 09:31:16;;;;;;;1.00;1.00;;;-6.60;99.90;;;;;;5072387;28;20196;-75
2024/02/10 09:33:43;;;;;;;0.90;0.90;;;-6.60;99.90;;;;;;5072383;28;20197;-75
2024/02/10 09:36:12;;;;;;;0.90;0.90;;;-6.50;99.90;;;;;;5072308;28;20212;-75
2024/02/10 09:38:42;;;;;;;0.90;0.90;;;-6.50;99.90;;;;;;5064574;28;20660;-75
2024/02/10 09:41:09;;;;;;;0.90;0.90;;;-6.50;99.90;;;;;;5092062;28;20631;-74
2024/02/10 09:43:48;;;;;;;0.90;0.90;;;-6.50;99.90;;;;;;5092438;28;20270;-75
2024/02/10 09:46:14;;;;;;;0.90;0.90;;;-6.40;99.90;;;;;;5092692;28;20655;-74
2024/02/10 09:48:51;;;;;;;0.90;0.90;;;-6.20;99.90;;;;;;5092436;28;20632;-75
2024/02/10 09:51:18;;;;;;;1.00;1.00;;;-6.20;99.90;;;;;;5074719;28;20225;-74
2024/02/10 09:53:44;;;;;;;1.00;1.00;;;-6.10;99.90;;;;;;5092594;28;20763;-76
2024/02/10 09:56:15;;;;;;;0.93;0.93;;;-6.00;99.90;;;;;;5092535;28;20204;-75
2024/02/10 09:58:46;;;;;;;1.00;1.00;;;-5.80;99.90;;;;;;5074122;28;20283;-73
2024/02/10 10:01:13;;;;;;;1.00;1.00;;;-5.60;99.90;;;;;;5092544;28;20263;-76
2024/02/10 10:03:39;;;;;;;1.00;1.00;;;-5.50;99.90;;;;;;5092278;28;20295;-73
2024/02/10 10:06:09;;;;;;;1.00;1.00;;;-5.40;99.90;;;;;;5073908;28;20719;-73
2024/02/10 10:08:39;;;;;;;1.00;1.00;;;-5.40;99.90;;;;;;5092113;28;20233;-73
2024/02/10 10:11:06;;;;;;;1.13;1.13;;;-5.40;99.90;;;;;;5092444;28;20188;-74
2024/02/10 10:13:35;;;;;;;0.90;0.90;;;-5.30;99.90;;;;;;5092181;28;20621;-74
2024/02/10 10:16:05;;;;;;;0.80;0.80;;;-5.20;99.90;;;;;;5092554;28;20253;-65
2024/02/10 10:18:33;;;;;;;1.00;1.00;;;-5.10;99.90;;;;;;5092608;28;20586;-65
2024/02/10 10:20:59;;;;;;;0.97;0.97;;;-5.00;99.90;;;;;;5079508;28;20220;-65
2024/02/10 10:23:29;;;;;;;1.00;1.00;;;-5.00;99.90;;;;;;5076448;28;20200;-65
2024/02/10 10:25:55;;;;;;;1.63;1.53;;;-4.90;99.90;;;;;;5075988;28;20692;-65
2024/02/10 10:28:21;;;;;;;0.90;0.90;;;-4.90;99.90;;;;;;5075871;28;20250;-66
2024/02/10 10:30:47;;;;;;;0.90;0.90;;;-4.80;99.90;;;;;;5075955;28;20193;-66
2024/02/10 10:33:20;;;;;;;3.23;2.93;;;-4.70;99.90;;;;;;5075926;28;20201;-66
2024/02/10 10:35:47;;;;;;;0.90;0.90;;;-4.50;99.90;;;;;;5081780;28;20279;-66
2024/02/10 10:38:18;;;;;;;0.83;0.83;;;-4.50;99.90;;;;;;5096130;28;20200;-67
2024/02/10 10:40:45;;;;;;;0.85;0.85;;;-4.50;99.90;;;;;;5096337;28;20666;-65
2024/02/10 10:43:11;;;;;;;0.90;0.90;;;-4.50;99.90;;;;;;5095970;28;20199;-65
2024/02/10 10:45:38;;;;;;;0.80;0.80;;;-4.50;99.90;;;;;;5095740;28;20250;-65
2024/02/10 10:48:05;;;;;;;0.90;0.90;;;-4.50;99.90;;;;;;5095846;28;20204;-65
2024/02/10 10:50:32;;;;;;;0.90;0.90;;;-4.40;99.90;;;;;;5095739;28;20196;-66
2024/02/10 10:53:12;;;;;;;0.90;0.90;;;-4.30;99.90;;;;;;5095731;28;20200;-65
2024/02/10 10:55:45;;;;;;;1.00;1.00;;;-4.20;99.90;;;;;;5095382;28;20691;-65
2024/02/10 10:58:16;;;;;;;0.90;0.90;;;-3.90;99.90;;;;;;5077500;28;20199;-65
2024/02/10 11:00:45;;;;;;;0.90;0.90;;;-3.90;99.90;;;;;;5095140;28;20221;-65
2024/02/10 11:03:14;;;;;;;0.97;0.97;;;-3.70;99.90;;;;;;5095574;28;20321;-65
2024/02/10 11:05:41;;;;;;;0.90;0.90;;;-3.70;99.90;;;;;;5095396;28;20570;-65
2024/02/10 11:08:10;;;;;;;0.90;0.90;;;-3.70;99.90;;;;;;5095315;28;20196;-65
2024/02/10 11:10:44;;;;;;;0.98;0.98;;;-3.60;99.90;;;;;;5095270;28;20188;-66
2024/02/10 11:13:22;;;;;;;0.90;0.90;;;-3.50;99.90;;;;;;5095417;28;20199;-65
2024/02/10 11:16:12;;;;;;;0.80;0.80;;;-3.50;99.90;;;;;;5095236;28;20204;-66
2024/02/10 11:18:39;;;;;;;0.90;0.90;;;-3.50;99.90;;;;;;5095036;28;20196;-65
2024/02/10 11:21:30;;;;;;;1.10;1.10;;;-3.40;99.90;;;;;;5077575;28;20189;-65
2024/02/10 11:23:59;;;;;;;0.80;0.80;;;-3.20;99.90;;;;;;5074826;28;20201;-66
2024/02/10 11:26:26;;;;;;;0.90;0.90;;;-3.20;99.90;;;;;;5074884;28;20189;-66
2024/02/10 11:29:09;;;;;;;1.00;1.00;;;-3.30;99.90;;;;;;5074715;28;20208;-66
2024/02/10 11:31:41;;;;;;;0.90;0.90;;;-3.40;99.90;;;;;;5077010;28;20193;-65
2024/02/10 11:34:14;;;;;;;0.90;0.90;;;-3.60;99.90;;;;;;5094982;28;20261;-65
2024/02/10 11:36:53;;;;;;;2.72;1.67;;;-3.80;99.90;;;;;;5094883;28;20227;-65
2024/02/10 11:39:20;;;;;;;1.00;1.00;;;-3.90;99.90;;;;;;5094711;28;20196;-66
2024/02/10 11:41:48;;;;;;;1.13;1.13;;;-3.70;99.90;;;;;;5094887;28;20736;-65
2024/02/10 11:44:17;;;;;;;0.98;0.98;;;-3.50;99.90;;;;;;5094732;28;20634;-66
2024/02/10 11:46:43;;;;;;;0.90;0.90;;;-3.60;99.90;;;;;;5094781;28;20261;-65
2024/02/10 11:49:11;;;;;;;1.00;1.00;;;-3.50;99.90;;;;;;5094635;28;20683;-65
2024/02/10 11:51:37;;;;;;;0.93;0.93;;;-3.50;99.90;;;;;;5094555;28;20275;-65
2024/02/10 11:54:03;;;;;;;0.90;0.90;;;-3.60;99.90;;;;;;5094697;28;20195;-65
2024/02/10 11:56:33;;;;;;;0.90;0.90;;;-3.70;99.90;;;;;;5094413;28;20203;-65
2024/02/10 11:59:00;;;;;;;0.80;0.80;;;-3.60;99.90;;;;;;5074307;28;20189;-65
2024/02/10 12:01:33;;;;;;;1.40;1.33;;;-3.70;99.90;;;;;;5074043;28;20200;-65
2024/02/10 12:04:05;;;;;;;0.90;0.90;;;-3.80;99.90;;;;;;5056149;28;20539;-65
2024/02/10 12:06:32;;;;;;;1.20;1.15;;;-3.70;99.90;;;;;;5074023;28;20242;-66
2024/02/10 12:08:59;;;;;;;0.90;0.90;;;-3.60;99.90;;;;;;5074027;28;20224;-65
2024/02/10 12:11:27;;;;;;;0.90;0.90;;;-3.50;99.90;;;;;;5073864;28;20189;-65
2024/02/10 12:13:56;;;;;;;0.90;0.90;;;-3.40;99.90;;;;;;5073909;28;20217;-65
2024/02/10 12:16:23;;;;;;;0.90;0.90;;;-3.40;99.90;;;;;;5073815;28;20203;-66
2024/02/10 12:18:50;;;;;;;1.00;1.00;;;-3.20;99.90;;;;;;5073902;28;20189;-66
2024/02/10 12:21:20;;;;;;;0.88;0.88;;;-3.20;99.90;;;;;;5073591;28;20189;-66
2024/02/10 12:23:50;;;;;;;1.52;1.38;;;-3.20;99.90;;;;;;5073869;28;20268;-66
2024/02/10 12:26:16;;;;;;;0.88;0.88;;;-3.10;99.90;;;;;;5073796;28;20219;-66
2024/02/10 12:28:41;;;;;;;0.77;0.77;;;-3.00;99.90;;;;;;5083099;28;20224;-65
2024/02/10 12:31:07;;;;;;;0.90;0.90;;;-2.80;99.90;;;;;;5093929;28;20648;-66
2024/02/10 12:33:34;;;;;;;0.80;0.80;;;-2.70;99.90;;;;;;5093721;28;20196;-66
2024/02/10 12:36:00;;;;;;;0.73;0.73;;;-2.60;99.90;;;;;;5093874;28;20683;-66
2024/02/10 12:38:25;;;;;;;0.80;0.80;;;-2.50;99.90;;;;;;5093571;28;20191;-65
2024/02/10 12:40:55;;;;;;;0.80;0.80;;;-2.50;99.90;;;;;;5093248;28;20620;-66
2024/02/10 12:43:24;;;;;;;1.13;1.13;;;-2.30;99.90;;;;;;5093225;28;20192;-66
2024/02/10 12:45:50;;;;;;;0.88;0.88;;;-2.20;99.90;;;;;;5093735;28;20204;-66
2024/02/10 12:48:16;;;;;;;0.88;0.88;;;-2.20;99.90;;;;;;5093592;28;20196;-66
2024/02/10 12:50:53;;;;;;;0.85;0.85;;;-2.50;99.90;;;;;;5093436;28;20204;-66
2024/02/10 12:53:19;;;;;;;0.80;0.80;;;-2.80;99.90;;;;;;5088401;28;20199;-67